Terminal Aerodrome Forecast
Issued by NWS Central Illinois

Home | Current Version | Previous Version | Text Only | Print | Product List | Glossary On
Versions: 1 2 3 4 5 6 7 8 9 10 11 12 13
000
FTUS43 KILX 031134
TAFPIA
TAF
KPIA 031134Z 0312/0412 19004KT P6SM BKN100
      TEMPO 0312/0314 5SM BR
     FM031600 22008KT P6SM BKN100
     FM040000 20003KT P6SM BKN100=

USA.gov is the U.S. government's official web portal to all federal, state and local government web resources and services.